ARG1733 SAAP-SABE
Flight info
| Callsign | ARG1733 |
|---|---|
| Flight time | 0h 36m |
| Altitude | 29000 |
| Route | ANRAL DCT PAGON PAGON8Q |
| Aircraft | E190/M-SDE3GILORVW/S |
Departure
| Time | 2026-04-20 12:19 |
|---|---|
| Airport | General Urquiza Airport (SAAP) |
Arrival
| Time | 2026-04-20 12:56 |
|---|---|
| Airport | Aeroparque Jorge Newbery (SABE) |
| Time | Latitude | Longitude | Altitude | Speed | Heading |
|---|---|---|---|---|---|
| 2026-04-20 12:01 | -31.78926 | -60.48338 | 272 ft | 0 kts | 218° |
| 2026-04-20 12:13 | -31.78925 | -60.48337 | 272 ft | 1 kts | 218° |
| 2026-04-20 12:13 | -31.78910 | -60.48319 | 272 ft | 4 kts | 266° |
| 2026-04-20 12:13 | -31.78916 | -60.48290 | 272 ft | 4 kts | 284° |
| 2026-04-20 12:14 | -31.78918 | -60.48259 | 272 ft | 4 kts | 265° |
| 2026-04-20 12:14 | -31.78915 | -60.48235 | 272 ft | 0 kts | 253° |
| 2026-04-20 12:16 | -31.78919 | -60.48246 | 272 ft | 3 kts | 244° |
| 2026-04-20 12:16 | -31.78943 | -60.48266 | 272 ft | 6 kts | 202° |
| 2026-04-20 12:16 | -31.78991 | -60.48277 | 272 ft | 9 kts | 187° |
| 2026-04-20 12:16 | -31.79028 | -60.48236 | 272 ft | 9 kts | 83° |
| 2026-04-20 12:17 | -31.78979 | -60.48181 | 272 ft | 11 kts | 18° |
| 2026-04-20 12:17 | -31.78892 | -60.48161 | 272 ft | 14 kts | 11° |
| 2026-04-20 12:17 | -31.78787 | -60.48142 | 272 ft | 17 kts | 8° |
| 2026-04-20 12:17 | -31.78667 | -60.48122 | 272 ft | 18 kts | 8° |
| 2026-04-20 12:18 | -31.78555 | -60.48085 | 272 ft | 15 kts | 39° |
| 2026-04-20 12:18 | -31.78540 | -60.47989 | 273 ft | 11 kts | 97° |
| 2026-04-20 12:18 | -31.78556 | -60.47903 | 274 ft | 11 kts | 97° |
| 2026-04-20 12:18 | -31.78605 | -60.47886 | 274 ft | 14 kts | 188° |
| 2026-04-20 12:19 | -31.78847 | -60.47927 | 275 ft | 67 kts | 188° |
| 2026-04-20 12:19 | -31.79538 | -60.48045 | 278 ft | 131 kts | 187° |
| 2026-04-20 12:19 | -31.80587 | -60.48252 | 510 ft | 165 kts | 189° |
| 2026-04-20 12:19 | -31.81779 | -60.48511 | 1035 ft | 183 kts | 184° |
| 2026-04-20 12:20 | -31.83074 | -60.48095 | 1356 ft | 210 kts | 135° |
| 2026-04-20 12:20 | -31.83816 | -60.46658 | 2355 ft | 208 kts | 113° |
| 2026-04-20 12:20 | -31.84579 | -60.45144 | 3111 ft | 228 kts | 122° |
| 2026-04-20 12:20 | -31.85546 | -60.43583 | 3881 ft | 252 kts | 124° |
| 2026-04-20 12:21 | -31.86644 | -60.41882 | 4742 ft | 268 kts | 125° |
| 2026-04-20 12:21 | -31.87807 | -60.40104 | 5776 ft | 279 kts | 125° |
| 2026-04-20 12:21 | -31.88994 | -60.38312 | 6837 ft | 284 kts | 126° |
| 2026-04-20 12:21 | -31.90230 | -60.36472 | 7902 ft | 288 kts | 127° |
| 2026-04-20 12:22 | -31.91491 | -60.34609 | 8950 ft | 293 kts | 128° |
| 2026-04-20 12:22 | -31.92778 | -60.32714 | 10008 ft | 299 kts | 128° |
| 2026-04-20 12:22 | -31.94123 | -60.30717 | 10574 ft | 321 kts | 128° |
| 2026-04-20 12:22 | -31.95535 | -60.28593 | 11356 ft | 336 kts | 128° |
| 2026-04-20 12:23 | -31.97008 | -60.26375 | 12096 ft | 350 kts | 128° |
| 2026-04-20 12:23 | -31.98533 | -60.24073 | 12922 ft | 362 kts | 128° |
| 2026-04-20 12:23 | -32.00099 | -60.21703 | 13858 ft | 370 kts | 128° |
| 2026-04-20 12:23 | -32.01678 | -60.19312 | 14749 ft | 377 kts | 128° |
| 2026-04-20 12:24 | -32.03300 | -60.16856 | 15717 ft | 383 kts | 129° |
| 2026-04-20 12:24 | -32.04956 | -60.14354 | 16650 ft | 390 kts | 129° |
| 2026-04-20 12:24 | -32.06635 | -60.11806 | 17532 ft | 396 kts | 129° |
| 2026-04-20 12:24 | -32.08338 | -60.09209 | 18373 ft | 402 kts | 129° |
| 2026-04-20 12:25 | -32.10056 | -60.06573 | 19053 ft | 409 kts | 129° |
| 2026-04-20 12:25 | -32.11796 | -60.03882 | 19719 ft | 415 kts | 128° |
| 2026-04-20 12:25 | -32.13556 | -60.01139 | 20391 ft | 422 kts | 128° |
| 2026-04-20 12:25 | -32.15312 | -59.98388 | 21050 ft | 428 kts | 128° |
| 2026-04-20 12:26 | -32.17112 | -59.95558 | 21716 ft | 434 kts | 128° |
| 2026-04-20 12:26 | -32.18929 | -59.92688 | 22366 ft | 440 kts | 128° |
| 2026-04-20 12:26 | -32.20769 | -59.89769 | 22979 ft | 445 kts | 128° |
| 2026-04-20 12:26 | -32.22623 | -59.86813 | 23560 ft | 451 kts | 128° |
| 2026-04-20 12:27 | -32.24496 | -59.83817 | 24024 ft | 456 kts | 128° |
| 2026-04-20 12:27 | -32.26389 | -59.80777 | 24468 ft | 462 kts | 128° |
| 2026-04-20 12:27 | -32.28299 | -59.77700 | 24917 ft | 467 kts | 128° |
| 2026-04-20 12:27 | -32.30234 | -59.74575 | 25360 ft | 472 kts | 128° |
| 2026-04-20 12:28 | -32.32177 | -59.71428 | 25799 ft | 477 kts | 128° |
| 2026-04-20 12:28 | -32.34143 | -59.68238 | 26222 ft | 482 kts | 127° |
| 2026-04-20 12:28 | -32.36125 | -59.65009 | 26646 ft | 487 kts | 127° |
| 2026-04-20 12:28 | -32.38117 | -59.61757 | 27067 ft | 491 kts | 127° |
| 2026-04-20 12:29 | -32.40099 | -59.58512 | 27459 ft | 495 kts | 127° |
| 2026-04-20 12:29 | -32.42124 | -59.55190 | 27849 ft | 499 kts | 127° |
| 2026-04-20 12:29 | -32.44159 | -59.51842 | 28223 ft | 503 kts | 127° |
| 2026-04-20 12:29 | -32.46211 | -59.48459 | 28579 ft | 507 kts | 127° |
| 2026-04-20 12:30 | -32.48277 | -59.45044 | 28942 ft | 510 kts | 127° |
| 2026-04-20 12:30 | -32.50327 | -59.41646 | 29017 ft | 495 kts | 127° |
| 2026-04-20 12:30 | -32.52307 | -59.38429 | 29025 ft | 471 kts | 131° |
| 2026-04-20 12:30 | -32.54598 | -59.35824 | 29024 ft | 442 kts | 150° |
| 2026-04-20 12:31 | -32.57247 | -59.34227 | 28991 ft | 416 kts | 165° |
| 2026-04-20 12:31 | -32.59916 | -59.33064 | 29002 ft | 404 kts | 166° |
| 2026-04-20 12:31 | -32.65139 | -59.30757 | 28997 ft | 399 kts | 166° |
| 2026-04-20 12:32 | -32.70341 | -59.28422 | 29013 ft | 399 kts | 165° |
| 2026-04-20 12:32 | -32.75534 | -59.26072 | 29032 ft | 399 kts | 165° |
| 2026-04-20 12:33 | -32.80719 | -59.23716 | 29048 ft | 399 kts | 165° |
| 2026-04-20 12:33 | -32.85866 | -59.21371 | 29013 ft | 398 kts | 165° |
| 2026-04-20 12:34 | -32.91037 | -59.19011 | 28994 ft | 397 kts | 165° |
| 2026-04-20 12:34 | -32.96191 | -59.16653 | 28998 ft | 396 kts | 165° |
| 2026-04-20 12:35 | -33.01336 | -59.14297 | 28994 ft | 396 kts | 165° |
| 2026-04-20 12:35 | -33.06482 | -59.11936 | 28994 ft | 396 kts | 165° |
| 2026-04-20 12:36 | -33.11615 | -59.09579 | 28998 ft | 395 kts | 165° |
| 2026-04-20 12:36 | -33.16704 | -59.07239 | 28997 ft | 394 kts | 164° |
| 2026-04-20 12:37 | -33.21815 | -59.04885 | 29028 ft | 394 kts | 164° |
| 2026-04-20 12:37 | -33.26932 | -59.02526 | 29036 ft | 394 kts | 165° |
| 2026-04-20 12:38 | -33.32050 | -59.00163 | 29061 ft | 393 kts | 165° |
| 2026-04-20 12:38 | -33.34628 | -58.98976 | 28606 ft | 401 kts | 165° |
| 2026-04-20 12:38 | -33.37244 | -58.97780 | 27985 ft | 402 kts | 165° |
| 2026-04-20 12:39 | -33.42434 | -58.95397 | 26681 ft | 401 kts | 165° |
| 2026-04-20 12:39 | -33.45044 | -58.94196 | 26052 ft | 400 kts | 165° |
| 2026-04-20 12:39 | -33.47643 | -58.92996 | 25434 ft | 399 kts | 165° |
| 2026-04-20 12:40 | -33.50227 | -58.91801 | 24833 ft | 397 kts | 165° |
| 2026-04-20 12:40 | -33.52803 | -58.90608 | 24242 ft | 396 kts | 165° |
| 2026-04-20 12:40 | -33.55361 | -58.89421 | 23666 ft | 393 kts | 165° |
| 2026-04-20 12:40 | -33.57904 | -58.88240 | 23002 ft | 391 kts | 165° |
| 2026-04-20 12:41 | -33.60433 | -58.87063 | 22334 ft | 388 kts | 164° |
| 2026-04-20 12:41 | -33.62942 | -58.85894 | 21684 ft | 385 kts | 164° |
| 2026-04-20 12:41 | -33.65430 | -58.84731 | 21053 ft | 382 kts | 163° |
| 2026-04-20 12:41 | -33.67901 | -58.83575 | 20443 ft | 379 kts | 163° |
| 2026-04-20 12:42 | -33.70349 | -58.82429 | 19849 ft | 376 kts | 163° |
| 2026-04-20 12:42 | -33.72777 | -58.81288 | 19264 ft | 373 kts | 162° |
| 2026-04-20 12:42 | -33.75184 | -58.80157 | 18697 ft | 370 kts | 162° |
| 2026-04-20 12:42 | -33.77561 | -58.79039 | 17807 ft | 374 kts | 162° |
| 2026-04-20 12:43 | -33.80032 | -58.77875 | 16900 ft | 378 kts | 161° |
| 2026-04-20 12:43 | -33.82417 | -58.76746 | 16436 ft | 368 kts | 161° |
| 2026-04-20 12:43 | -33.84781 | -58.75626 | 15913 ft | 362 kts | 161° |
| 2026-04-20 12:43 | -33.87105 | -58.74524 | 15425 ft | 355 kts | 161° |
| 2026-04-20 12:44 | -33.89386 | -58.73442 | 14957 ft | 349 kts | 161° |
| 2026-04-20 12:44 | -33.91637 | -58.72400 | 14495 ft | 343 kts | 164° |
| 2026-04-20 12:44 | -33.93952 | -58.71994 | 14051 ft | 332 kts | 184° |
| 2026-04-20 12:44 | -33.96226 | -58.72256 | 13614 ft | 326 kts | 189° |
| 2026-04-20 12:45 | -33.98471 | -58.72525 | 13170 ft | 321 kts | 188° |
| 2026-04-20 12:45 | -34.00675 | -58.72777 | 12758 ft | 316 kts | 188° |
| 2026-04-20 12:45 | -34.02848 | -58.73022 | 12342 ft | 311 kts | 187° |
| 2026-04-20 12:45 | -34.04992 | -58.73259 | 11936 ft | 308 kts | 187° |
| 2026-04-20 12:46 | -34.07086 | -58.73488 | 11526 ft | 305 kts | 187° |
| 2026-04-20 12:46 | -34.09186 | -58.73717 | 11125 ft | 302 kts | 187° |
| 2026-04-20 12:46 | -34.11271 | -58.73942 | 10722 ft | 300 kts | 187° |
| 2026-04-20 12:46 | -34.13342 | -58.74164 | 10339 ft | 298 kts | 186° |
| 2026-04-20 12:47 | -34.15406 | -58.74385 | 9885 ft | 299 kts | 186° |
| 2026-04-20 12:47 | -34.17478 | -58.74606 | 9445 ft | 297 kts | 186° |
| 2026-04-20 12:47 | -34.19521 | -58.74825 | 9075 ft | 293 kts | 186° |
| 2026-04-20 12:47 | -34.21549 | -58.75041 | 8686 ft | 291 kts | 186° |
| 2026-04-20 12:48 | -34.23558 | -58.75254 | 8307 ft | 289 kts | 186° |
| 2026-04-20 12:48 | -34.25559 | -58.75466 | 7928 ft | 288 kts | 185° |
| 2026-04-20 12:48 | -34.27547 | -58.75678 | 7548 ft | 286 kts | 185° |
| 2026-04-20 12:48 | -34.29508 | -58.75885 | 7157 ft | 279 kts | 185° |
| 2026-04-20 12:49 | -34.31416 | -58.76045 | 6790 ft | 271 kts | 176° |
| 2026-04-20 12:49 | -34.33161 | -58.75356 | 6424 ft | 264 kts | 140° |
| 2026-04-20 12:49 | -34.34406 | -58.73794 | 6154 ft | 255 kts | 124° |
| 2026-04-20 12:49 | -34.35508 | -58.72106 | 5801 ft | 256 kts | 126° |
| 2026-04-20 12:50 | -34.36645 | -58.70443 | 5448 ft | 257 kts | 126° |
| 2026-04-20 12:50 | -34.37790 | -58.68789 | 5113 ft | 256 kts | 127° |
| 2026-04-20 12:50 | -34.38942 | -58.67141 | 4786 ft | 256 kts | 127° |
| 2026-04-20 12:50 | -34.40091 | -58.65506 | 4448 ft | 253 kts | 127° |
| 2026-04-20 12:51 | -34.41213 | -58.63920 | 4108 ft | 243 kts | 127° |
| 2026-04-20 12:51 | -34.42283 | -58.62411 | 3760 ft | 235 kts | 127° |
| 2026-04-20 12:51 | -34.43328 | -58.60935 | 3491 ft | 227 kts | 127° |
| 2026-04-20 12:51 | -34.44348 | -58.59495 | 3187 ft | 224 kts | 127° |
| 2026-04-20 12:52 | -34.45352 | -58.58081 | 2889 ft | 217 kts | 127° |
| 2026-04-20 12:52 | -34.46346 | -58.56741 | 2645 ft | 210 kts | 128° |
| 2026-04-20 12:52 | -34.47297 | -58.55483 | 2499 ft | 194 kts | 127° |
| 2026-04-20 12:52 | -34.48179 | -58.54303 | 2287 ft | 185 kts | 126° |
| 2026-04-20 12:53 | -34.49029 | -58.53162 | 2079 ft | 180 kts | 127° |
| 2026-04-20 12:53 | -34.49582 | -58.52423 | 1985 ft | 177 kts | 127° |
| 2026-04-20 12:53 | -34.50390 | -58.51338 | 1864 ft | 170 kts | 127° |
| 2026-04-20 12:53 | -34.51096 | -58.50244 | 1759 ft | 155 kts | 119° |
| 2026-04-20 12:54 | -34.51651 | -58.49241 | 1868 ft | 136 kts | 118° |
| 2026-04-20 12:54 | -34.52187 | -58.48295 | 1759 ft | 133 kts | 117° |
| 2026-04-20 12:54 | -34.52703 | -58.47379 | 1653 ft | 136 kts | 118° |
| 2026-04-20 12:54 | -34.53239 | -58.46399 | 1265 ft | 140 kts | 118° |
| 2026-04-20 12:55 | -34.53761 | -58.45433 | 799 ft | 133 kts | 120° |
| 2026-04-20 12:55 | -34.54262 | -58.44559 | 507 ft | 116 kts | 122° |
| 2026-04-20 12:55 | -34.54678 | -58.43797 | 308 ft | 105 kts | 120° |
| 2026-04-20 12:55 | -34.55091 | -58.43064 | 169 ft | 107 kts | 121° |
| 2026-04-20 12:56 | -34.55501 | -58.42333 | 42 ft | 97 kts | 121° |
| 2026-04-20 12:56 | -34.55808 | -58.41782 | 26 ft | 58 kts | 124° |
| 2026-04-20 12:56 | -34.55977 | -58.41479 | 24 ft | 25 kts | 124° |
| 2026-04-20 12:56 | -34.56010 | -58.41359 | 26 ft | 11 kts | 54° |
| 2026-04-20 12:57 | -34.55944 | -58.41303 | 26 ft | 12 kts | 22° |
| 2026-04-20 12:57 | -34.55859 | -58.41280 | 27 ft | 13 kts | 2° |
| 2026-04-20 12:57 | -34.55793 | -58.41363 | 26 ft | 15 kts | 299° |
| 2026-04-20 12:57 | -34.55743 | -58.41460 | 29 ft | 9 kts | 300° |
| 2026-04-20 12:58 | -34.55715 | -58.41489 | 28 ft | 4 kts | 358° |
| 2026-04-20 12:58 | -34.55692 | -58.41484 | 28 ft | 2 kts | 11° |
| 2026-04-20 12:58 | -34.55686 | -58.41483 | 27 ft | 0 kts | 12° |